createdAt,value
2022-12-16T00:00:29.846Z,25.10
2022-12-16T00:02:59.400Z,25.15
2022-12-16T00:05:25.993Z,24.98
2022-12-16T00:07:52.464Z,24.38
2022-12-16T00:10:22.860Z,25.25
2022-12-16T00:12:49.360Z,24.13
2022-12-16T00:15:18.436Z,24.90
2022-12-16T00:17:44.955Z,24.40
2022-12-16T00:20:11.916Z,23.90
2022-12-16T00:22:38.448Z,24.50
2022-12-16T00:25:05.295Z,25.15
2022-12-16T00:27:31.815Z,26.10
2022-12-16T00:29:58.340Z,25.90
2022-12-16T00:32:24.812Z,24.88
2022-12-16T00:34:51.316Z,23.83
2022-12-16T00:37:18.405Z,24.70
2022-12-16T00:39:44.900Z,24.83
2022-12-16T00:42:11.428Z,25.20
2022-12-16T00:44:37.988Z,24.63
2022-12-16T00:47:06.315Z,24.80
2022-12-16T00:49:32.938Z,25.20
2022-12-16T00:51:59.400Z,25.83
2022-12-16T00:54:25.867Z,25.20
2022-12-16T00:56:52.363Z,25.05
2022-12-16T00:59:18.879Z,25.88
2022-12-16T01:01:45.551Z,24.55
2022-12-16T01:04:12.318Z,25.98
2022-12-16T01:06:38.941Z,24.88
2022-12-16T01:09:05.539Z,26.30
2022-12-16T01:11:32.128Z,25.10
2022-12-16T01:13:59.534Z,24.98
2022-12-16T01:16:26.047Z,24.42
2022-12-16T01:18:53.356Z,25.73
2022-12-16T01:21:22.167Z,24.80
2022-12-16T01:23:48.728Z,24.58
2022-12-16T01:26:17.875Z,23.95
2022-12-16T01:28:45.018Z,25.02
2022-12-16T01:31:12.394Z,25.55
2022-12-16T01:33:39.184Z,25.52
2022-12-16T01:36:08.126Z,25.65
2022-12-16T01:38:35.868Z,25.65
2022-12-16T01:41:02.925Z,25.73
2022-12-16T01:43:33.895Z,27.02
2022-12-16T01:46:07.637Z,24.80
2022-12-16T01:48:59.994Z,25.67
2022-12-16T01:51:38.303Z,25.15
2022-12-16T01:54:22.425Z,26.60
2022-12-16T01:56:54.087Z,25.45
2022-12-16T01:59:25.284Z,26.38
2022-12-16T02:01:52.733Z,26.17
2022-12-16T02:04:19.375Z,26.60
2022-12-16T02:06:46.041Z,26.83
2022-12-16T02:09:15.311Z,26.98
2022-12-16T02:12:00.468Z,26.92
2022-12-16T02:14:58.815Z,27.20
2022-12-16T02:17:41.193Z,26.08
2022-12-16T02:20:48.480Z,26.23
2022-12-16T02:23:47.383Z,26.40
2022-12-16T02:26:34.463Z,26.40
2022-12-16T02:29:37.968Z,27.67
2022-12-16T02:32:23.074Z,27.10
2022-12-16T02:34:59.215Z,26.95
2022-12-16T02:37:44.754Z,26.20
2022-12-16T02:40:21.418Z,26.33
2022-12-16T02:42:54.684Z,28.90
2022-12-16T02:45:27.427Z,27.58
2022-12-16T02:47:54.491Z,29.90
2022-12-16T02:50:34.966Z,27.77
2022-12-16T02:53:02.857Z,27.42
2022-12-16T02:55:57.180Z,29.27
2022-12-16T02:58:46.226Z,28.08
2022-12-16T03:01:25.566Z,28.63
2022-12-16T03:03:58.326Z,29.15
2022-12-16T03:06:27.347Z,28.02
2022-12-16T03:08:59.828Z,27.48
2022-12-16T03:11:29.677Z,29.60
2022-12-16T03:13:57.836Z,28.95
2022-12-16T03:16:29.725Z,29.67
2022-12-16T03:19:01.867Z,29.63
2022-12-16T03:21:34.592Z,31.05
2022-12-16T03:24:03.513Z,30.85
2022-12-16T03:26:46.810Z,30.77
2022-12-16T03:29:27.087Z,29.77
2022-12-16T03:32:02.013Z,30.77
2022-12-16T03:34:37.346Z,30.23
2022-12-16T03:37:07.711Z,32.08
2022-12-16T03:39:40.231Z,31.58
2022-12-16T03:42:07.395Z,31.17
2022-12-16T03:44:35.927Z,30.73
2022-12-16T03:47:02.516Z,30.98
2022-12-16T03:49:29.153Z,30.33
2022-12-16T03:51:56.277Z,32.10
2022-12-16T03:54:23.542Z,30.45
2022-12-16T03:56:50.068Z,30.65
2022-12-16T03:59:16.711Z,31.33
2022-12-16T04:01:43.774Z,29.02
2022-12-16T04:04:10.438Z,31.00
2022-12-16T04:06:36.906Z,30.23
2022-12-16T04:09:03.928Z,29.75
2022-12-16T04:11:48.972Z,30.88
2022-12-16T04:14:34.003Z,29.95
2022-12-16T04:17:19.123Z,31.73
2022-12-16T04:20:04.919Z,31.50
2022-12-16T04:22:59.093Z,31.63
2022-12-16T04:25:32.354Z,32.03
2022-12-16T04:27:59.241Z,31.98
2022-12-16T04:30:27.966Z,31.58
2022-12-16T04:33:19.306Z,32.55
2022-12-16T04:36:04.671Z,33.17
2022-12-16T04:38:50.626Z,32.15
2022-12-16T04:41:36.122Z,33.65
2022-12-16T04:44:21.852Z,31.23
2022-12-16T04:47:07.126Z,32.33
2022-12-16T04:49:52.247Z,32.97
2022-12-16T04:52:37.847Z,35.13
2022-12-16T04:55:24.071Z,33.67
2022-12-16T04:58:13.948Z,33.40
2022-12-16T05:00:59.851Z,33.03
2022-12-16T05:06:31.963Z,31.85
2022-12-16T05:09:17.200Z,31.27
2022-12-16T05:12:02.298Z,34.58
2022-12-16T05:14:47.555Z,33.15
2022-12-16T05:17:33.177Z,33.47
2022-12-16T05:20:18.519Z,33.92
2022-12-16T05:23:03.917Z,34.90
2022-12-16T05:25:48.874Z,37.58
2022-12-16T05:28:44.633Z,37.03
2022-12-16T05:31:29.653Z,37.42
2022-12-16T05:34:14.948Z,39.33
2022-12-16T05:36:59.807Z,38.90
2022-12-16T05:39:44.976Z,40.67
2022-12-16T05:42:30.370Z,40.58
2022-12-16T05:45:15.351Z,41.20
2022-12-16T05:48:00.426Z,42.73
2022-12-16T05:50:45.619Z,41.63
2022-12-16T05:53:30.876Z,38.65
2022-12-16T05:56:16.222Z,40.13
2022-12-16T05:59:01.104Z,40.92
2022-12-16T06:01:46.629Z,39.93
2022-12-16T06:04:31.642Z,40.65
2022-12-16T06:07:16.846Z,39.67
2022-12-16T06:10:01.773Z,40.15
2022-12-16T06:12:46.776Z,40.87
2022-12-16T06:15:31.796Z,40.20
2022-12-16T06:18:16.598Z,40.70
2022-12-16T06:21:02.901Z,41.17
2022-12-16T06:23:47.971Z,40.03
2022-12-16T06:26:32.829Z,39.58
2022-12-16T06:29:17.840Z,39.97
2022-12-16T06:32:03.089Z,40.47
2022-12-16T06:34:48.200Z,40.53
2022-12-16T06:37:33.048Z,39.97
2022-12-16T06:40:17.896Z,38.30
2022-12-16T06:43:02.771Z,38.20
2022-12-16T06:45:47.726Z,37.72
2022-12-16T06:48:33.067Z,38.85
2022-12-16T06:51:18.040Z,39.13
2022-12-16T06:54:03.115Z,38.03
2022-12-16T06:56:48.257Z,37.80
2022-12-16T06:59:33.380Z,36.95
2022-12-16T07:02:18.783Z,35.60
2022-12-16T07:05:03.664Z,35.38
2022-12-16T07:07:48.470Z,37.50
2022-12-16T07:10:33.494Z,36.58
2022-12-16T07:13:18.849Z,35.10
2022-12-16T07:16:04.917Z,36.20
2022-12-16T07:18:50.144Z,38.08
2022-12-16T07:21:35.369Z,36.28
2022-12-16T07:24:20.571Z,36.83
2022-12-16T07:27:25.543Z,37.90
2022-12-16T07:30:10.549Z,36.35
2022-12-16T07:32:55.836Z,37.87
2022-12-16T07:35:40.639Z,44.80
2022-12-16T07:38:25.622Z,38.22
2022-12-16T07:41:10.420Z,41.27
2022-12-16T07:44:00.110Z,40.45
2022-12-16T07:47:04.784Z,40.20
2022-12-16T07:49:49.751Z,40.53
2022-12-16T07:52:34.935Z,40.38
2022-12-16T07:55:19.706Z,40.27
2022-12-16T07:58:09.145Z,42.00
2022-12-16T08:00:54.539Z,64.88
2022-12-16T08:03:41.403Z,77.65
2022-12-16T08:06:26.235Z,56.90
2022-12-16T08:09:11.293Z,51.72
2022-12-16T08:11:56.185Z,45.60
2022-12-16T08:14:41.189Z,41.50
2022-12-16T08:17:25.960Z,45.10
2022-12-16T08:20:11.479Z,38.05
2022-12-16T08:22:59.056Z,46.38
2022-12-16T08:25:44.683Z,37.80
2022-12-16T08:28:29.907Z,38.97
2022-12-16T08:31:14.784Z,56.28
2022-12-16T08:33:59.916Z,39.88
2022-12-16T08:36:45.216Z,37.30
2022-12-16T08:39:30.102Z,41.63
2022-12-16T08:42:15.369Z,41.85
2022-12-16T08:45:00.279Z,56.60
2022-12-16T08:47:45.397Z,42.67
2022-12-16T08:50:30.330Z,49.65
2022-12-16T08:53:15.489Z,35.83
2022-12-16T08:56:01.295Z,35.15
2022-12-16T08:58:46.326Z,36.40
2022-12-16T09:01:32.019Z,33.72
2022-12-16T09:07:02.354Z,34.50
2022-12-16T09:09:47.355Z,33.47
2022-12-16T09:12:32.284Z,40.10
2022-12-16T09:15:17.495Z,42.33
2022-12-16T09:18:02.361Z,31.75
2022-12-16T09:20:47.509Z,36.47
2022-12-16T09:23:32.568Z,35.13
2022-12-16T09:26:18.117Z,38.30
2022-12-16T09:29:03.188Z,35.97
2022-12-16T09:31:52.603Z,33.90
2022-12-16T09:34:37.531Z,40.60
2022-12-16T09:37:22.437Z,35.03
2022-12-16T09:40:07.361Z,35.17
2022-12-16T09:43:12.591Z,38.50
2022-12-16T09:46:29.927Z,40.30
2022-12-16T09:49:18.057Z,33.60
2022-12-16T09:52:06.003Z,34.75
2022-12-16T09:54:55.424Z,37.85
2022-12-16T09:57:42.483Z,37.15
2022-12-16T10:00:42.028Z,35.83
2022-12-16T10:03:51.132Z,38.08
2022-12-16T10:06:55.836Z,42.55
2022-12-16T10:09:47.994Z,39.63
2022-12-16T10:12:40.888Z,38.13
2022-12-16T10:15:51.568Z,40.47
2022-12-16T10:18:48.335Z,33.58
2022-12-16T10:21:40.512Z,34.90
2022-12-16T10:24:37.912Z,34.63
2022-12-16T10:27:31.904Z,35.65
2022-12-16T10:30:17.367Z,36.58
2022-12-16T10:33:06.439Z,35.72
2022-12-16T10:36:00.440Z,37.05
2022-12-16T10:39:03.004Z,37.72
2022-12-16T10:41:52.669Z,32.58
2022-12-16T10:45:07.615Z,41.90
2022-12-16T10:47:52.521Z,34.03
2022-12-16T10:53:32.952Z,30.67
2022-12-16T10:56:37.228Z,31.63
2022-12-16T10:59:24.645Z,31.23
2022-12-16T11:02:24.414Z,30.80
2022-12-16T11:05:09.631Z,31.85
2022-12-16T11:08:10.955Z,31.42
2022-12-16T11:10:59.165Z,32.78
2022-12-16T11:13:49.819Z,31.75
2022-12-16T11:16:47.369Z,32.47
2022-12-16T11:19:42.006Z,32.30
2022-12-16T11:22:57.542Z,33.97
2022-12-16T11:25:42.363Z,34.33
2022-12-16T11:28:33.133Z,32.75
2022-12-16T11:31:23.497Z,34.13
2022-12-16T11:34:10.747Z,33.28
2022-12-16T11:36:57.658Z,31.25
2022-12-16T11:39:45.429Z,31.50
2022-12-16T11:42:42.453Z,30.10
2022-12-16T11:46:03.354Z,31.42
2022-12-16T11:48:59.205Z,29.67
2022-12-16T11:51:47.873Z,28.20
2022-12-16T11:54:46.301Z,29.10
2022-12-16T11:58:01.900Z,29.48
2022-12-16T12:00:48.107Z,30.35
2022-12-16T12:03:42.632Z,31.38
2022-12-16T12:06:49.647Z,30.80
2022-12-16T12:09:40.213Z,29.45
2022-12-16T12:12:47.339Z,29.10
2022-12-16T12:15:58.866Z,28.98
2022-12-16T12:19:04.876Z,28.75
2022-12-16T12:22:15.060Z,31.80
2022-12-16T12:25:21.009Z,30.48
2022-12-16T12:28:22.952Z,30.50
2022-12-16T12:31:24.731Z,30.52
2022-12-16T12:34:26.659Z,29.13
2022-12-16T12:37:42.972Z,27.83
2022-12-16T12:40:43.324Z,27.57
2022-12-16T12:43:43.654Z,26.67
2022-12-16T12:46:45.092Z,28.20
2022-12-16T12:49:41.444Z,26.30
2022-12-16T12:55:19.916Z,25.40
2022-12-16T12:58:08.520Z,26.15
2022-12-16T13:01:01.554Z,26.05
2022-12-16T13:04:27.158Z,26.77
2022-12-16T13:07:12.749Z,26.08
2022-12-16T13:09:58.294Z,26.35
2022-12-16T13:12:48.474Z,27.45
2022-12-16T13:15:56.558Z,26.60
2022-12-16T13:18:49.312Z,26.42
2022-12-16T13:22:04.388Z,28.23
2022-12-16T13:24:58.469Z,26.05
2022-12-16T13:27:46.427Z,26.55
2022-12-16T13:30:31.406Z,27.55
2022-12-16T13:33:22.828Z,27.20
2022-12-16T13:36:16.603Z,27.75
2022-12-16T13:39:43.904Z,28.70
2022-12-16T13:42:59.722Z,28.27
2022-12-16T13:45:56.251Z,28.20
2022-12-16T13:48:52.107Z,30.58
2022-12-16T13:51:55.195Z,30.35
2022-12-16T13:55:04.983Z,30.60
2022-12-16T13:57:56.009Z,30.55
2022-12-16T14:00:43.833Z,31.50
2022-12-16T14:03:37.085Z,31.27
2022-12-16T14:06:28.023Z,30.85
2022-12-16T14:09:13.123Z,30.58
2022-12-16T14:12:19.925Z,30.48
2022-12-16T14:18:13.392Z,30.67
2022-12-16T14:21:07.645Z,31.55
2022-12-16T14:24:10.118Z,30.48
2022-12-16T14:26:56.789Z,31.30
2022-12-16T14:29:45.592Z,30.45
2022-12-16T14:32:45.311Z,30.98
2022-12-16T14:35:33.111Z,32.38
2022-12-16T14:38:33.617Z,30.08
2022-12-16T14:41:18.548Z,30.13
2022-12-16T14:44:03.502Z,29.90
2022-12-16T14:46:50.109Z,30.67
2022-12-16T14:49:44.031Z,29.08
2022-12-16T14:52:39.627Z,29.38
2022-12-16T14:55:47.393Z,28.80
2022-12-16T14:58:41.031Z,27.70
2022-12-16T15:01:37.379Z,28.73
2022-12-16T15:04:29.077Z,27.13
2022-12-16T15:07:14.852Z,28.95
2022-12-16T15:10:05.052Z,29.45
2022-12-16T15:12:56.025Z,27.73
2022-12-16T15:15:53.322Z,28.83
2022-12-16T15:18:47.087Z,26.45
2022-12-16T15:21:31.920Z,27.70
2022-12-16T15:24:16.708Z,27.67
2022-12-16T15:27:01.737Z,26.92
2022-12-16T15:29:58.961Z,27.67
2022-12-16T15:32:44.007Z,30.50
2022-12-16T15:35:29.731Z,29.30
2022-12-16T15:38:14.540Z,29.08
2022-12-16T15:40:59.799Z,28.73
2022-12-16T15:43:53.670Z,29.83
2022-12-16T15:46:43.962Z,28.77
2022-12-16T15:49:48.292Z,28.40
2022-12-16T15:52:48.752Z,27.92
2022-12-16T15:55:49.173Z,28.40
2022-12-16T15:58:47.473Z,28.25
2022-12-16T16:01:35.416Z,26.60
2022-12-16T16:04:21.121Z,28.08
2022-12-16T16:07:08.888Z,28.17
2022-12-16T16:09:56.293Z,27.52
2022-12-16T16:12:42.493Z,26.90
2022-12-16T16:15:30.381Z,27.63
2022-12-16T16:18:22.551Z,29.15
2022-12-16T16:21:08.745Z,28.27
2022-12-16T16:23:54.103Z,28.15
2022-12-16T16:26:41.715Z,28.05
2022-12-16T16:29:29.535Z,28.25
2022-12-16T16:32:14.680Z,29.77
2022-12-16T16:34:59.756Z,29.05
2022-12-16T16:37:44.716Z,28.08
2022-12-16T16:40:51.797Z,28.70
2022-12-16T16:43:37.563Z,27.95
2022-12-16T16:49:18.688Z,27.27
2022-12-16T16:52:03.607Z,29.15
2022-12-16T16:54:49.259Z,28.35
2022-12-16T16:57:34.445Z,28.40
2022-12-16T17:00:19.613Z,28.80
2022-12-16T17:03:04.964Z,29.77
2022-12-16T17:05:50.008Z,29.30
2022-12-16T17:11:20.944Z,28.85
2022-12-16T17:14:06.115Z,29.90
2022-12-16T17:16:51.054Z,29.85
2022-12-16T17:19:36.218Z,31.35
2022-12-16T17:22:21.076Z,30.33
2022-12-16T17:25:06.245Z,31.13
2022-12-16T17:27:50.987Z,31.00
2022-12-16T17:30:43.495Z,31.02
2022-12-16T17:33:33.278Z,30.27
2022-12-16T17:36:18.865Z,28.75
2022-12-16T17:39:04.492Z,30.33
2022-12-16T17:41:55.652Z,30.85
2022-12-16T17:44:40.508Z,31.88
2022-12-16T17:47:25.283Z,31.20
2022-12-16T17:50:10.131Z,32.55
2022-12-16T17:52:54.893Z,32.92
2022-12-16T17:55:39.831Z,33.75
2022-12-16T17:58:24.639Z,32.57
2022-12-16T18:01:09.563Z,34.63
2022-12-16T18:03:54.604Z,33.87
2022-12-16T18:06:39.736Z,32.57
2022-12-16T18:09:24.816Z,31.77
2022-12-16T18:12:09.556Z,32.05
2022-12-16T18:14:54.820Z,31.92
2022-12-16T18:17:39.856Z,31.92
2022-12-16T18:20:25.118Z,31.25
2022-12-16T18:23:12.965Z,32.58
2022-12-16T18:25:58.146Z,31.75
2022-12-16T18:28:43.314Z,32.10
2022-12-16T18:31:28.637Z,32.63
2022-12-16T18:34:13.766Z,32.47
2022-12-16T18:36:59.219Z,32.20
2022-12-16T18:39:44.373Z,30.83
2022-12-16T18:42:29.413Z,31.35
2022-12-16T18:45:14.290Z,32.13
2022-12-16T18:47:59.496Z,31.30
2022-12-16T18:50:44.683Z,30.70
2022-12-16T18:53:30.019Z,31.70
2022-12-16T18:56:26.069Z,29.85
2022-12-16T18:59:11.479Z,32.50
2022-12-16T19:01:57.118Z,31.13
2022-12-16T19:04:42.733Z,31.80
2022-12-16T19:07:30.701Z,31.95
2022-12-16T19:10:17.955Z,31.40
2022-12-16T19:13:02.813Z,30.47
2022-12-16T19:15:47.839Z,31.15
2022-12-16T19:18:33.139Z,32.53
2022-12-16T19:21:18.359Z,33.05
2022-12-16T19:24:03.343Z,31.90
2022-12-16T19:26:48.531Z,31.70
2022-12-16T19:29:33.678Z,32.42
2022-12-16T19:32:18.727Z,33.13
2022-12-16T19:35:03.978Z,31.88
2022-12-16T19:37:49.033Z,31.33
2022-12-16T19:40:33.941Z,31.83
2022-12-16T19:43:18.794Z,32.35
2022-12-16T19:46:10.955Z,31.38
2022-12-16T19:48:56.235Z,32.35
2022-12-16T19:51:41.007Z,31.55
2022-12-16T19:54:25.880Z,31.38
2022-12-16T19:57:10.968Z,30.85
2022-12-16T19:59:55.687Z,31.20
2022-12-16T20:02:41.785Z,32.53
2022-12-16T20:08:11.663Z,31.20
2022-12-16T20:10:56.534Z,29.38
2022-12-16T20:13:41.928Z,32.63
2022-12-16T20:16:29.117Z,32.83
2022-12-16T20:19:14.951Z,32.53
2022-12-16T20:24:53.578Z,33.15
2022-12-16T20:27:41.931Z,31.55
2022-12-16T20:30:27.713Z,41.95
2022-12-16T20:33:12.926Z,39.67
2022-12-16T20:35:57.912Z,37.15
2022-12-16T20:38:43.061Z,33.47
2022-12-16T20:41:28.267Z,33.50
2022-12-16T20:44:13.436Z,34.85
2022-12-16T20:46:58.809Z,33.92
2022-12-16T20:49:43.848Z,34.63
2022-12-16T20:52:29.063Z,32.23
2022-12-16T20:55:14.220Z,33.03
2022-12-16T20:57:59.365Z,32.40
2022-12-16T21:00:44.586Z,29.65
2022-12-16T21:03:29.709Z,32.22
2022-12-16T21:06:14.789Z,32.70
2022-12-16T21:08:59.910Z,30.95
2022-12-16T21:11:44.809Z,30.98
2022-12-16T21:14:29.880Z,32.65
2022-12-16T21:17:14.808Z,32.95
2022-12-16T21:20:00.122Z,29.97
2022-12-16T21:22:45.166Z,30.65
2022-12-16T21:25:30.114Z,30.30
2022-12-16T21:28:16.333Z,30.75
2022-12-16T21:31:01.718Z,31.35
2022-12-16T21:33:47.140Z,30.73
2022-12-16T21:39:17.583Z,30.52
2022-12-16T21:42:02.409Z,30.93
2022-12-16T21:44:47.626Z,29.50
2022-12-16T21:47:32.729Z,30.85
2022-12-16T21:50:17.607Z,30.63
2022-12-16T21:53:05.680Z,30.92
2022-12-16T21:55:51.085Z,32.20
2022-12-16T21:58:37.103Z,31.33
2022-12-16T22:01:22.098Z,29.15
2022-12-16T22:04:07.127Z,30.45
2022-12-16T22:07:03.267Z,31.00
2022-12-16T22:09:48.113Z,30.50
2022-12-16T22:12:32.818Z,30.38
2022-12-16T22:15:17.932Z,28.90
2022-12-16T22:18:03.212Z,28.67
2022-12-16T22:20:48.112Z,30.50
2022-12-16T22:23:34.058Z,30.10
2022-12-16T22:29:05.331Z,28.02
2022-12-16T22:34:35.449Z,28.67
2022-12-16T22:37:20.440Z,29.27
2022-12-16T22:40:05.463Z,30.83
2022-12-16T22:42:50.279Z,31.40
2022-12-16T22:45:35.210Z,29.15
2022-12-16T22:48:20.474Z,30.45
2022-12-16T22:51:05.604Z,30.35
2022-12-16T22:53:50.699Z,29.02
2022-12-16T22:56:37.018Z,30.73
2022-12-16T22:59:22.099Z,29.33
2022-12-16T23:02:07.420Z,29.43
2022-12-16T23:04:52.270Z,30.70
2022-12-16T23:07:37.504Z,32.00
2022-12-16T23:10:23.880Z,31.20
2022-12-16T23:13:09.027Z,30.55
2022-12-16T23:15:56.533Z,29.88
2022-12-16T23:18:59.608Z,31.23
2022-12-16T23:21:44.932Z,31.23
2022-12-16T23:24:30.177Z,31.40
2022-12-16T23:27:16.099Z,29.02
2022-12-16T23:32:46.276Z,29.45
2022-12-16T23:35:31.072Z,28.90
2022-12-16T23:38:20.651Z,30.02
2022-12-16T23:41:05.778Z,30.98
2022-12-16T23:43:51.224Z,30.30
2022-12-16T23:46:37.017Z,31.85
2022-12-16T23:49:22.282Z,31.80
2022-12-16T23:52:07.197Z,32.40
2022-12-16T23:54:52.188Z,31.23
2022-12-16T23:57:37.276Z,30.90
